createdAt,value
2019-02-11T13:15:56.370Z,6.10
2019-02-11T13:16:31.032Z,9.90
2019-02-11T13:17:34.575Z,7.00
2019-02-11T13:18:31.459Z,5.60
2019-02-11T13:19:31.031Z,8.20
2019-02-11T13:20:31.059Z,6.60
2019-02-11T13:21:31.031Z,7.80
2019-02-11T13:22:31.034Z,7.40
2019-02-11T13:23:31.035Z,6.10
2019-02-11T13:24:31.037Z,7.40
2019-02-11T13:25:31.037Z,6.80
2019-02-11T13:26:31.041Z,8.30
2019-02-11T13:27:31.041Z,6.40
2019-02-11T13:28:31.082Z,6.90
2019-02-11T13:29:31.049Z,11.40
2019-02-11T13:30:31.065Z,9.00
2019-02-11T13:31:31.054Z,9.20
2019-02-11T13:32:31.062Z,9.20
2019-02-11T13:33:31.062Z,9.30
2019-02-11T13:34:31.082Z,11.90
2019-02-11T13:35:31.069Z,8.30
2019-02-11T13:36:31.102Z,8.60
2019-02-11T13:37:31.093Z,7.90
2019-02-11T13:38:31.079Z,9.10
2019-02-11T13:39:31.333Z,7.90
2019-02-11T13:40:31.085Z,10.20
2019-02-11T13:41:31.087Z,9.70
2019-02-11T13:42:31.100Z,10.40
2019-02-11T13:43:31.093Z,10.80
2019-02-11T13:44:32.105Z,9.20
2019-02-11T13:45:31.091Z,8.30
2019-02-11T13:46:31.095Z,10.40
2019-02-11T13:47:31.090Z,10.00
2019-02-11T13:48:34.187Z,10.50
2019-02-11T13:49:31.101Z,9.30
2019-02-11T13:50:31.094Z,8.10
2019-02-11T13:51:31.097Z,9.30
2019-02-11T13:52:31.144Z,9.00
2019-02-11T13:53:31.088Z,7.80
2019-02-11T13:54:31.104Z,7.90
2019-02-11T13:55:32.019Z,6.60
2019-02-11T13:56:31.085Z,7.20
2019-02-11T13:57:31.081Z,9.30
2019-02-11T13:58:31.082Z,8.20
2019-02-11T13:59:31.081Z,6.70
2019-02-11T14:00:31.372Z,7.70
2019-02-11T14:01:31.077Z,7.80
2019-02-11T14:02:31.075Z,6.60
2019-02-11T14:03:31.073Z,7.80
2019-02-11T14:04:31.073Z,8.10
2019-02-11T14:05:31.070Z,8.40
2019-02-11T14:06:31.073Z,7.30
2019-02-11T14:07:31.071Z,8.90
2019-02-11T14:08:31.148Z,9.30
2019-02-11T14:09:31.082Z,7.40
2019-02-11T14:10:31.076Z,7.70
2019-02-11T14:11:31.070Z,7.30
2019-02-11T14:12:31.082Z,8.20
2019-02-11T14:13:31.072Z,9.20
2019-02-11T14:14:31.076Z,9.00
2019-02-11T14:15:31.130Z,7.40
2019-02-11T14:16:31.313Z,8.00
2019-02-11T14:17:31.078Z,8.90
2019-02-11T14:18:31.089Z,8.10
2019-02-11T14:19:31.081Z,7.20
2019-02-11T14:20:31.090Z,8.50
2019-02-11T14:21:31.103Z,9.80
2019-02-11T14:22:31.094Z,9.80
2019-02-11T14:23:31.113Z,9.60
2019-02-11T14:24:31.111Z,8.70
2019-02-11T14:25:42.274Z,8.50
2019-02-11T14:26:31.104Z,6.30
2019-02-11T14:27:31.109Z,8.30
2019-02-11T14:28:31.116Z,10.80
2019-02-11T14:29:31.118Z,9.00
2019-02-11T14:30:31.222Z,9.40
2019-02-11T14:31:31.412Z,5.80
2019-02-11T14:32:31.735Z,9.40
2019-02-11T14:33:31.129Z,7.90
2019-02-11T14:34:31.137Z,9.50
2019-02-11T14:35:31.142Z,10.80
2019-02-11T14:36:31.146Z,9.00
2019-02-11T14:37:31.143Z,8.90
2019-02-11T14:38:31.157Z,9.90
2019-02-11T14:39:31.154Z,7.00
2019-02-11T14:40:31.160Z,7.80
2019-02-11T14:41:31.159Z,8.00
2019-02-11T14:42:31.163Z,7.90
2019-02-11T14:43:31.169Z,7.00
2019-02-11T14:44:31.169Z,8.70
2019-02-11T14:45:31.200Z,9.90
2019-02-11T14:46:31.172Z,9.50
2019-02-11T14:47:31.182Z,7.70
2019-02-11T14:48:31.326Z,9.70
2019-02-11T14:49:31.178Z,8.80
2019-02-11T14:50:31.183Z,9.20
2019-02-11T14:51:31.183Z,8.80
2019-02-11T14:52:31.187Z,8.40
2019-02-11T14:53:31.190Z,7.60
2019-02-11T14:54:31.191Z,10.00
2019-02-11T14:55:31.193Z,8.10
2019-02-11T14:56:31.203Z,10.00
2019-02-11T14:57:31.191Z,8.30
2019-02-11T14:58:31.198Z,6.80
2019-02-11T14:59:31.194Z,13.10
2019-02-11T15:00:31.205Z,6.90
2019-02-11T15:01:31.192Z,8.60
2019-02-11T15:02:31.194Z,10.50
2019-02-11T15:03:31.192Z,10.10
2019-02-11T15:04:31.315Z,8.70
2019-02-11T15:05:31.197Z,7.50
2019-02-11T15:06:31.188Z,12.40
2019-02-11T15:07:31.183Z,10.80
2019-02-11T15:08:31.182Z,8.40
2019-02-11T15:09:31.177Z,8.30
2019-02-11T15:10:31.181Z,10.70
2019-02-11T15:11:31.171Z,10.10
2019-02-11T15:12:31.185Z,10.90
2019-02-11T15:13:31.163Z,11.30
2019-02-11T15:14:31.167Z,10.20
2019-02-11T15:15:31.156Z,9.10
2019-02-11T15:16:31.155Z,12.60
2019-02-11T15:17:31.146Z,12.70
2019-02-11T15:18:34.394Z,11.20
2019-02-11T15:19:31.138Z,12.10
2019-02-11T15:20:31.326Z,10.40
2019-02-11T15:21:31.131Z,12.80
2019-02-11T15:22:31.125Z,10.20
2019-02-11T15:23:31.119Z,13.70
2019-02-11T15:24:31.114Z,9.00
2019-02-11T15:25:31.107Z,12.20
2019-02-11T15:26:31.107Z,11.10
2019-02-11T15:27:31.098Z,11.00
2019-02-11T15:28:31.096Z,9.40
2019-02-11T15:29:31.087Z,10.50
2019-02-11T15:30:31.086Z,11.10
2019-02-11T15:31:31.329Z,9.20
2019-02-11T15:32:31.076Z,9.60
2019-02-11T15:33:31.068Z,9.80
2019-02-11T15:34:31.069Z,11.40
2019-02-11T15:35:31.060Z,10.60
2019-02-11T15:36:31.307Z,11.10
2019-02-11T15:37:31.049Z,11.20
2019-02-11T15:38:31.047Z,9.50
2019-02-11T15:39:31.039Z,13.10
2019-02-11T15:40:31.039Z,13.20
2019-02-11T15:41:31.028Z,12.50
2019-02-11T15:42:31.026Z,16.20
2019-02-11T15:43:31.021Z,13.30
2019-02-11T15:44:31.062Z,14.20
2019-02-11T15:45:31.006Z,17.00
2019-02-11T15:46:31.004Z,11.40
2019-02-11T15:47:30.997Z,12.10
2019-02-11T15:48:30.993Z,13.80
2019-02-11T15:49:30.984Z,15.30
2019-02-11T15:50:30.982Z,11.90
2019-02-11T15:51:30.973Z,14.70
2019-02-11T15:52:31.253Z,12.40
2019-02-11T15:53:30.961Z,11.00
2019-02-11T15:54:30.957Z,11.80
2019-02-11T15:55:30.949Z,14.60
2019-02-11T15:56:30.945Z,12.00
2019-02-11T15:57:30.936Z,14.70
2019-02-11T15:58:31.009Z,15.60
2019-02-11T15:59:30.925Z,13.70
2019-02-11T16:00:30.941Z,13.10
2019-02-11T16:01:30.910Z,10.50
2019-02-11T16:02:30.905Z,12.30
2019-02-11T16:03:30.897Z,14.10
2019-02-11T16:04:30.892Z,14.70
2019-02-11T16:05:30.883Z,14.50
2019-02-11T16:06:37.811Z,12.90
2019-02-11T16:07:30.874Z,10.80
2019-02-11T16:08:31.251Z,11.30
2019-02-11T16:09:30.864Z,14.90
2019-02-11T16:10:30.876Z,13.30
2019-02-11T16:11:30.843Z,12.40
2019-02-11T16:12:30.838Z,14.90
2019-02-11T16:13:31.129Z,11.70
2019-02-11T16:14:30.824Z,14.10
2019-02-11T16:15:30.817Z,14.30
2019-02-11T16:16:30.833Z,15.40
2019-02-11T16:17:30.812Z,17.00
2019-02-11T16:18:30.813Z,10.50
2019-02-11T16:19:30.789Z,12.00
2019-02-11T16:20:30.781Z,13.00
2019-02-11T16:21:30.772Z,15.20
2019-02-11T16:22:30.768Z,12.70
2019-02-11T16:23:30.759Z,17.30
2019-02-11T16:24:30.770Z,14.00
2019-02-11T16:25:30.743Z,12.90
2019-02-11T16:26:30.739Z,13.40
2019-02-11T16:27:30.730Z,14.00
2019-02-11T16:28:30.724Z,11.20
2019-02-11T16:29:30.715Z,16.00
2019-02-11T16:30:30.711Z,12.20
2019-02-11T16:31:30.703Z,14.70
2019-02-11T16:32:30.709Z,15.60
2019-02-11T16:33:30.691Z,13.50
2019-02-11T16:34:30.681Z,16.10
2019-02-11T16:35:30.673Z,12.00
2019-02-11T16:36:30.666Z,11.70
2019-02-11T16:37:30.661Z,14.20
2019-02-11T16:38:30.651Z,14.10
2019-02-11T16:39:30.642Z,14.90
2019-02-11T16:40:30.916Z,10.00
2019-02-11T16:41:30.627Z,13.40
2019-02-11T16:42:30.623Z,12.80
2019-02-11T16:43:30.613Z,13.00
2019-02-11T16:44:30.605Z,11.10
2019-02-11T16:45:30.596Z,15.20
2019-02-11T16:46:30.590Z,12.70
2019-02-11T16:47:30.583Z,13.20
2019-02-11T16:48:30.662Z,13.40
2019-02-11T16:49:30.565Z,12.90
2019-02-11T16:50:30.560Z,16.10
2019-02-11T16:51:30.551Z,12.60
2019-02-11T16:52:30.543Z,15.60
2019-02-11T16:53:30.535Z,14.20
2019-02-11T16:54:30.530Z,16.20
2019-02-11T16:55:30.519Z,16.10
2019-02-11T16:56:30.905Z,15.90
2019-02-11T16:57:30.502Z,15.20
2019-02-11T16:58:30.497Z,16.50
2019-02-11T16:59:30.487Z,13.20
2019-02-11T17:00:30.483Z,11.80
2019-02-11T17:01:30.472Z,13.70
2019-02-11T17:02:30.466Z,14.30
2019-02-11T17:03:30.455Z,15.10
2019-02-11T17:04:30.663Z,15.80
2019-02-11T17:05:30.440Z,12.80
2019-02-11T17:06:30.434Z,15.60
2019-02-11T17:07:30.426Z,14.70
2019-02-11T17:08:30.417Z,17.10
2019-02-11T17:09:30.407Z,14.80
2019-02-11T17:10:30.402Z,13.50
2019-02-11T17:11:30.391Z,16.10
2019-02-11T17:12:30.907Z,18.10
2019-02-11T17:13:30.374Z,11.90
2019-02-11T17:14:30.374Z,18.30
2019-02-11T17:15:30.359Z,15.10
2019-02-11T17:16:30.353Z,19.40
2019-02-11T17:17:30.342Z,17.90
2019-02-11T17:18:30.340Z,14.20
2019-02-11T17:19:30.327Z,18.60
2019-02-11T17:20:30.589Z,15.40
2019-02-11T17:21:30.315Z,13.80
2019-02-11T17:22:30.303Z,14.80
2019-02-11T17:23:30.294Z,13.60
2019-02-11T17:24:30.290Z,18.30
2019-02-11T17:25:30.277Z,13.00
2019-02-11T17:26:30.273Z,15.00
2019-02-11T17:27:30.262Z,12.30
2019-02-11T17:28:30.255Z,16.10
2019-02-11T17:29:30.246Z,14.40
2019-02-11T17:30:30.237Z,15.80
2019-02-11T17:31:30.232Z,20.40
2019-02-11T17:32:30.220Z,14.80
2019-02-11T17:33:30.214Z,13.50
2019-02-11T17:34:30.204Z,16.40
2019-02-11T17:35:30.198Z,15.70
2019-02-11T17:36:30.187Z,17.40
2019-02-11T17:37:30.181Z,18.00
2019-02-11T17:38:30.172Z,17.70
2019-02-11T17:39:30.164Z,18.50
2019-02-11T17:40:30.153Z,18.20
2019-02-11T17:41:30.150Z,15.80
2019-02-11T17:42:30.387Z,15.10
2019-02-11T17:43:30.134Z,15.10
2019-02-11T17:44:30.121Z,16.40
2019-02-11T17:45:30.141Z,17.90
2019-02-11T17:46:30.105Z,12.70
2019-02-11T17:47:30.097Z,13.60
2019-02-11T17:48:30.089Z,19.80
2019-02-11T17:49:30.080Z,16.60
2019-02-11T17:50:30.070Z,20.00
2019-02-11T17:51:30.065Z,17.40
2019-02-11T17:52:30.054Z,16.60
2019-02-11T17:53:30.049Z,15.30
2019-02-11T17:54:30.036Z,18.90
2019-02-11T17:55:30.031Z,18.10
2019-02-11T17:56:30.019Z,17.60
2019-02-11T17:57:30.013Z,19.40
2019-02-11T17:58:30.003Z,21.10
2019-02-11T17:59:29.997Z,17.10
2019-02-11T18:00:29.997Z,18.40
2019-02-11T18:01:29.980Z,19.60
2019-02-11T18:02:29.980Z,18.10
2019-02-11T18:03:29.963Z,18.40
2019-02-11T18:04:29.953Z,18.20
2019-02-11T18:05:29.947Z,15.00
2019-02-11T18:06:29.942Z,16.70
2019-02-11T18:07:29.941Z,20.10
2019-02-11T18:08:29.922Z,14.80
2019-02-11T18:09:30.319Z,16.50
2019-02-11T18:13:30.642Z,16.50
